Bridgeville, California
Current Conditions -  °F | °C
As of 2:50 AM on Wednesday 22 Oct 2014 (Local Time) from KFOT Reporting Station
Broken Clouds Broken Clouds  
Wind Chill: 55°   Ceiling: 7000
Heat Index: 55°   Visibility: 10mi
Dew Point: 48°   Wind: 10mph
Humidity: 77%   Direction: 120°ESE
Pressure: 30.04"   Gusts: NA
Location:  40.47°N, 123.8°W
Report Text: KFOT 220950Z AUTO 12009KT 10SM SCT043 BKN070 13/09 A3004 RMK AO1
Loading
Personal Weather Stations






























Interactive Weather Map
Tropical Storm Tracking
New forecast layout! Learn more

10-Day Weather Forecast

Advertisements
Track Severe Weather on mobile